createdAt,value
2023-05-09T00:01:20.725Z,46.75
2023-05-09T00:03:47.743Z,46.49
2023-05-09T00:06:15.439Z,47.10
2023-05-09T00:08:41.965Z,46.72
2023-05-09T00:11:08.438Z,46.35
2023-05-09T00:13:34.875Z,47.11
2023-05-09T00:16:01.395Z,47.44
2023-05-09T00:18:28.498Z,47.37
2023-05-09T00:20:55.019Z,47.00
2023-05-09T00:23:21.464Z,47.55
2023-05-09T00:25:48.039Z,47.69
2023-05-09T00:28:14.544Z,47.45
2023-05-09T00:30:41.020Z,47.51
2023-05-09T00:33:07.542Z,47.98
2023-05-09T00:35:34.893Z,49.13
2023-05-09T00:38:01.460Z,49.21
2023-05-09T00:40:27.945Z,48.31
2023-05-09T00:42:55.999Z,47.81
2023-05-09T00:45:22.493Z,48.04
2023-05-09T00:47:48.978Z,48.49
2023-05-09T00:50:15.516Z,48.49
2023-05-09T00:52:42.028Z,48.04
2023-05-09T00:55:08.954Z,48.57
2023-05-09T00:57:36.207Z,47.53
2023-05-09T01:00:04.460Z,48.50
2023-05-09T01:02:32.196Z,48.29
2023-05-09T01:04:59.009Z,48.63
2023-05-09T01:07:36.624Z,49.74
2023-05-09T01:10:14.264Z,49.74
2023-05-09T01:13:05.076Z,48.64
2023-05-09T01:16:23.721Z,49.10
2023-05-09T01:18:56.597Z,49.42
2023-05-09T01:21:30.739Z,48.79
2023-05-09T01:24:12.712Z,49.94
2023-05-09T01:26:48.003Z,49.69
2023-05-09T01:29:35.399Z,49.55
2023-05-09T01:32:10.105Z,50.38
2023-05-09T01:34:38.699Z,51.12
2023-05-09T01:37:05.804Z,51.17
2023-05-09T01:39:34.201Z,51.43
2023-05-09T01:42:03.476Z,52.06
2023-05-09T01:44:33.897Z,51.38
2023-05-09T01:47:01.287Z,51.36
2023-05-09T01:49:29.707Z,50.87
2023-05-09T01:51:56.544Z,50.45
2023-05-09T01:54:23.498Z,50.47
2023-05-09T01:56:50.201Z,51.67
2023-05-09T01:59:17.610Z,52.41
2023-05-09T02:01:45.731Z,51.07
2023-05-09T02:04:13.967Z,52.02
2023-05-09T02:06:40.814Z,52.22
2023-05-09T02:09:08.433Z,52.67
2023-05-09T02:11:34.896Z,51.68
2023-05-09T02:14:01.388Z,51.89
2023-05-09T02:16:28.031Z,51.29
2023-05-09T02:18:54.541Z,52.10
2023-05-09T02:21:21.065Z,50.80
2023-05-09T02:23:47.715Z,52.62
2023-05-09T02:26:14.339Z,52.48
2023-05-09T02:28:41.800Z,52.13
2023-05-09T02:31:08.490Z,51.67
2023-05-09T02:33:36.188Z,52.71
2023-05-09T02:36:02.783Z,53.31
2023-05-09T02:38:29.238Z,52.71
2023-05-09T02:40:55.831Z,53.67
2023-05-09T02:43:22.592Z,52.83
2023-05-09T02:45:49.088Z,53.57
2023-05-09T02:48:15.654Z,53.40
2023-05-09T02:50:43.442Z,53.37
2023-05-09T02:53:10.041Z,54.24
2023-05-09T02:55:36.555Z,55.31
2023-05-09T02:58:13.472Z,54.38
2023-05-09T03:00:41.023Z,54.92
2023-05-09T03:03:07.631Z,55.97
2023-05-09T03:05:34.213Z,55.75
2023-05-09T03:08:00.703Z,55.88
2023-05-09T03:10:27.207Z,56.10
2023-05-09T03:12:53.740Z,55.97
2023-05-09T03:15:20.960Z,56.32
2023-05-09T03:17:47.790Z,55.87
2023-05-09T03:20:15.023Z,55.69
2023-05-09T03:22:41.582Z,56.90
2023-05-09T03:25:08.213Z,57.02
2023-05-09T03:27:36.726Z,57.00
2023-05-09T03:30:03.390Z,56.87
2023-05-09T03:32:30.013Z,57.65
2023-05-09T03:34:57.272Z,57.63
2023-05-09T03:37:26.227Z,57.56
2023-05-09T03:39:53.497Z,56.77
2023-05-09T03:42:20.109Z,56.82
2023-05-09T03:44:46.659Z,58.25
2023-05-09T03:47:13.172Z,57.23
2023-05-09T03:49:39.627Z,57.20
2023-05-09T03:52:06.120Z,58.73
2023-05-09T03:54:32.586Z,57.03
2023-05-09T03:56:59.107Z,58.45
2023-05-09T03:59:25.583Z,57.99
2023-05-09T04:01:52.121Z,58.57
2023-05-09T04:04:18.594Z,58.58
2023-05-09T04:06:45.106Z,58.07
2023-05-09T04:09:11.564Z,57.61
2023-05-09T04:11:38.145Z,58.47
2023-05-09T04:14:07.241Z,58.12
2023-05-09T04:16:33.908Z,58.14
2023-05-09T04:19:00.471Z,57.31
2023-05-09T04:21:26.981Z,57.84
2023-05-09T04:23:53.533Z,58.12
2023-05-09T04:26:21.894Z,58.75
2023-05-09T04:28:48.376Z,58.45
2023-05-09T04:31:15.052Z,57.52
2023-05-09T04:33:41.611Z,58.30
2023-05-09T04:36:08.450Z,59.05
2023-05-09T04:38:35.270Z,59.88
2023-05-09T04:41:01.821Z,58.77
2023-05-09T04:43:28.421Z,59.65
2023-05-09T04:45:54.911Z,59.29
2023-05-09T04:48:21.417Z,58.96
2023-05-09T04:50:48.644Z,58.94
2023-05-09T04:53:15.190Z,59.94
2023-05-09T04:55:41.630Z,59.33
2023-05-09T04:58:09.268Z,58.55
2023-05-09T05:00:35.883Z,59.19
2023-05-09T05:03:02.460Z,59.00
2023-05-09T05:05:29.073Z,58.29
2023-05-09T05:07:55.783Z,57.88
2023-05-09T05:10:22.242Z,58.37
2023-05-09T05:12:48.797Z,57.09
2023-05-09T05:15:15.581Z,57.76
2023-05-09T05:17:42.319Z,57.82
2023-05-09T05:20:10.619Z,58.25
2023-05-09T05:22:37.114Z,56.59
2023-05-09T05:25:04.529Z,57.65
2023-05-09T05:27:31.534Z,57.16
2023-05-09T05:29:58.091Z,56.51
2023-05-09T05:32:24.629Z,56.67
2023-05-09T05:34:51.152Z,56.82
2023-05-09T05:37:17.602Z,57.44
2023-05-09T05:39:44.060Z,57.15
2023-05-09T05:42:10.608Z,56.13
2023-05-09T05:44:37.082Z,56.26
2023-05-09T05:47:03.557Z,56.03
2023-05-09T05:49:30.072Z,55.30
2023-05-09T05:51:56.514Z,56.52
2023-05-09T05:54:23.002Z,56.09
2023-05-09T05:56:49.475Z,55.66
2023-05-09T05:59:16.295Z,55.10
2023-05-09T06:01:42.857Z,55.35
2023-05-09T06:04:09.411Z,54.44
2023-05-09T06:06:35.943Z,54.03
2023-05-09T06:09:02.548Z,54.29
2023-05-09T06:11:28.987Z,53.97
2023-05-09T06:13:55.532Z,54.23
2023-05-09T06:16:22.104Z,54.48
2023-05-09T06:18:48.731Z,53.99
2023-05-09T06:21:15.214Z,53.88
2023-05-09T06:23:56.957Z,54.29
2023-05-09T06:26:23.985Z,53.46
2023-05-09T06:28:50.440Z,52.98
2023-05-09T06:31:16.944Z,53.45
2023-05-09T06:33:43.459Z,52.51
2023-05-09T06:36:10.006Z,53.02
2023-05-09T06:38:36.486Z,53.24
2023-05-09T06:41:02.965Z,53.04
2023-05-09T06:43:29.488Z,52.51
2023-05-09T06:45:55.981Z,52.44
2023-05-09T06:48:24.020Z,52.30
2023-05-09T06:50:50.732Z,52.63
2023-05-09T06:53:17.257Z,52.58
2023-05-09T06:55:44.135Z,52.39
2023-05-09T06:58:11.281Z,52.35
2023-05-09T07:00:38.089Z,51.70
2023-05-09T07:03:04.622Z,52.51
2023-05-09T07:05:31.185Z,52.05
2023-05-09T07:07:57.847Z,52.13
2023-05-09T07:10:24.532Z,51.80
2023-05-09T07:12:51.084Z,51.05
2023-05-09T07:15:28.763Z,51.14
2023-05-09T07:18:03.666Z,50.17
2023-05-09T07:20:30.210Z,50.58
2023-05-09T07:22:58.433Z,48.91
2023-05-09T07:25:24.961Z,49.23
2023-05-09T07:27:51.499Z,49.68
2023-05-09T07:30:18.047Z,49.82
2023-05-09T07:32:44.563Z,48.63
2023-05-09T07:35:11.171Z,48.03
2023-05-09T07:37:37.597Z,48.51
2023-05-09T07:40:06.167Z,47.29
2023-05-09T07:42:33.143Z,48.72
2023-05-09T07:45:00.365Z,49.25
2023-05-09T07:47:26.970Z,47.78
2023-05-09T07:49:53.431Z,47.97
2023-05-09T07:52:19.923Z,48.30
2023-05-09T07:54:46.469Z,47.11
2023-05-09T07:57:13.031Z,47.37
2023-05-09T07:59:39.530Z,45.21
2023-05-09T08:02:06.520Z,45.38
2023-05-09T08:04:33.105Z,45.91
2023-05-09T08:06:59.669Z,46.68
2023-05-09T08:09:26.661Z,46.09
2023-05-09T08:11:53.179Z,44.33
2023-05-09T08:14:19.642Z,44.44
2023-05-09T08:16:46.086Z,43.95
2023-05-09T08:19:13.183Z,44.05
2023-05-09T08:21:39.675Z,43.92
2023-05-09T08:24:08.060Z,43.74
2023-05-09T08:26:35.257Z,44.30
2023-05-09T08:29:01.895Z,44.70
2023-05-09T08:31:28.460Z,44.43
2023-05-09T08:33:54.982Z,43.05
2023-05-09T08:36:21.508Z,43.00
2023-05-09T08:38:47.942Z,43.37
2023-05-09T08:41:14.609Z,44.68
2023-05-09T08:43:41.702Z,43.55
2023-05-09T08:46:10.065Z,44.25
2023-05-09T08:48:39.441Z,43.47
2023-05-09T08:51:06.777Z,43.49
2023-05-09T08:53:34.378Z,44.56
2023-05-09T08:56:03.772Z,42.48
2023-05-09T08:58:31.359Z,42.34
2023-05-09T09:00:59.060Z,43.75
2023-05-09T09:03:26.326Z,42.74
2023-05-09T09:05:54.496Z,43.49
2023-05-09T09:08:22.365Z,43.54
2023-05-09T09:10:49.025Z,43.77
2023-05-09T09:13:17.528Z,43.69
2023-05-09T09:15:46.003Z,43.06
2023-05-09T09:18:16.866Z,42.85
2023-05-09T09:20:50.142Z,42.39
2023-05-09T09:23:21.094Z,41.68
2023-05-09T09:25:48.115Z,41.18
2023-05-09T09:28:15.067Z,41.44
2023-05-09T09:30:47.548Z,42.02
2023-05-09T09:33:21.627Z,41.57
2023-05-09T09:35:52.429Z,41.44
2023-05-09T09:38:19.807Z,42.02
2023-05-09T09:41:04.450Z,42.02
2023-05-09T09:43:31.977Z,41.27
2023-05-09T09:46:02.632Z,41.51
2023-05-09T09:48:35.870Z,41.44
2023-05-09T09:51:08.364Z,41.07
2023-05-09T09:53:39.779Z,40.27
2023-05-09T09:56:06.581Z,40.82
2023-05-09T09:58:33.085Z,40.25
2023-05-09T10:01:10.597Z,40.63
2023-05-09T10:03:42.218Z,39.18
2023-05-09T10:06:14.106Z,39.26
2023-05-09T10:08:41.241Z,38.73
2023-05-09T10:11:07.850Z,37.92
2023-05-09T10:13:38.441Z,37.27
2023-05-09T10:16:06.406Z,37.13
2023-05-09T10:18:33.964Z,37.26
2023-05-09T10:21:05.201Z,37.52
2023-05-09T10:23:33.209Z,37.37
2023-05-09T10:26:16.938Z,37.25
2023-05-09T10:28:45.980Z,37.10
2023-05-09T10:31:16.266Z,36.24
2023-05-09T10:33:47.500Z,36.71
2023-05-09T10:36:17.693Z,36.15
2023-05-09T10:38:44.281Z,36.86
2023-05-09T10:41:12.221Z,36.23
2023-05-09T10:43:39.010Z,36.04
2023-05-09T10:46:06.262Z,35.77
2023-05-09T10:48:33.445Z,35.86
2023-05-09T10:51:03.674Z,35.22
2023-05-09T10:53:44.562Z,34.92
2023-05-09T10:56:39.887Z,35.24
2023-05-09T10:59:06.505Z,36.16
2023-05-09T11:01:39.246Z,35.64
2023-05-09T11:04:14.556Z,33.86
2023-05-09T11:06:45.530Z,34.02
2023-05-09T11:09:38.907Z,34.12
2023-05-09T11:12:05.497Z,34.45
2023-05-09T11:14:39.599Z,34.69
2023-05-09T11:17:08.099Z,34.37
2023-05-09T11:19:39.259Z,33.77
2023-05-09T11:22:28.561Z,34.21
2023-05-09T11:25:11.163Z,34.60
2023-05-09T11:27:40.835Z,34.71
2023-05-09T11:30:08.231Z,33.26
2023-05-09T11:32:41.948Z,33.52
2023-05-09T11:35:17.805Z,33.23
2023-05-09T11:37:49.719Z,33.77
2023-05-09T11:40:18.294Z,33.32
2023-05-09T11:42:50.048Z,35.40
2023-05-09T11:45:17.880Z,36.01
2023-05-09T11:47:45.821Z,36.03
2023-05-09T11:50:13.875Z,36.65
2023-05-09T11:52:41.497Z,35.50
2023-05-09T11:55:13.759Z,34.34
2023-05-09T11:57:49.124Z,35.96
2023-05-09T12:00:17.364Z,35.90
2023-05-09T12:02:45.699Z,35.97
2023-05-09T12:05:14.657Z,34.75
2023-05-09T12:07:42.234Z,34.19
2023-05-09T12:10:10.826Z,35.45
2023-05-09T12:12:43.156Z,34.93
2023-05-09T12:15:10.113Z,34.31
2023-05-09T12:17:36.997Z,34.72
2023-05-09T12:20:07.480Z,33.28
2023-05-09T12:22:34.364Z,33.23
2023-05-09T12:25:02.580Z,33.32
2023-05-09T12:27:29.373Z,34.31
2023-05-09T12:29:56.100Z,32.81
2023-05-09T12:32:22.742Z,31.62
2023-05-09T12:34:49.917Z,33.03
2023-05-09T12:37:18.270Z,31.97
2023-05-09T12:39:45.938Z,32.52
2023-05-09T12:42:13.597Z,31.96
2023-05-09T12:44:40.189Z,32.10
2023-05-09T12:47:06.670Z,31.96
2023-05-09T12:49:36.495Z,32.36
2023-05-09T12:52:04.767Z,32.30
2023-05-09T12:54:31.636Z,30.86
2023-05-09T12:56:58.589Z,30.47
2023-05-09T12:59:27.184Z,30.64
2023-05-09T13:01:57.983Z,31.18
2023-05-09T13:04:26.093Z,30.85
2023-05-09T13:06:55.580Z,30.32
2023-05-09T13:09:23.204Z,31.13
2023-05-09T13:11:51.001Z,31.72
2023-05-09T13:14:18.464Z,30.99
2023-05-09T13:16:45.087Z,30.36
2023-05-09T13:19:12.226Z,29.96
2023-05-09T13:21:38.753Z,31.63
2023-05-09T13:24:05.724Z,32.02
2023-05-09T13:26:32.390Z,31.78
2023-05-09T13:28:58.945Z,31.56
2023-05-09T13:31:25.753Z,31.27
2023-05-09T13:33:52.492Z,31.43
2023-05-09T13:36:19.351Z,31.58
2023-05-09T13:38:46.211Z,31.60
2023-05-09T13:41:13.706Z,31.59
2023-05-09T13:43:42.595Z,31.81
2023-05-09T13:46:09.201Z,31.32
2023-05-09T13:48:35.750Z,32.49
2023-05-09T13:51:03.713Z,31.79
2023-05-09T13:53:30.252Z,32.24
2023-05-09T13:55:57.043Z,32.10
2023-05-09T13:58:23.537Z,32.15
2023-05-09T14:00:50.297Z,31.38
2023-05-09T14:03:16.818Z,31.55
2023-05-09T14:05:43.409Z,31.90
2023-05-09T14:08:09.938Z,32.27
2023-05-09T14:10:36.392Z,31.90
2023-05-09T14:13:02.970Z,33.09
2023-05-09T14:15:29.957Z,33.05
2023-05-09T14:17:57.097Z,33.73
2023-05-09T14:20:23.696Z,32.24
2023-05-09T14:22:50.204Z,31.62
2023-05-09T14:25:16.962Z,32.29
2023-05-09T14:27:43.473Z,32.93
2023-05-09T14:30:10.406Z,33.26
2023-05-09T14:32:37.219Z,33.19
2023-05-09T14:35:04.105Z,33.78
2023-05-09T14:37:30.663Z,34.16
2023-05-09T14:40:05.259Z,34.53
2023-05-09T14:42:32.095Z,34.05
2023-05-09T14:44:58.750Z,33.67
2023-05-09T14:47:25.241Z,33.86
2023-05-09T14:49:52.335Z,33.28
2023-05-09T14:52:18.854Z,34.34
2023-05-09T14:54:45.414Z,33.80
2023-05-09T14:57:11.998Z,33.75
2023-05-09T14:59:38.480Z,33.89
2023-05-09T15:02:05.428Z,33.73
2023-05-09T15:04:31.990Z,34.35
2023-05-09T15:06:59.174Z,33.88
2023-05-09T15:09:25.849Z,33.67
2023-05-09T15:11:52.405Z,33.13
2023-05-09T15:14:18.919Z,33.70
2023-05-09T15:16:45.724Z,34.29
2023-05-09T15:19:12.355Z,33.33
2023-05-09T15:21:38.855Z,33.93
2023-05-09T15:24:05.627Z,33.35
2023-05-09T15:26:32.412Z,33.24
2023-05-09T15:28:59.116Z,32.69
2023-05-09T15:31:25.918Z,34.20
2023-05-09T15:33:52.516Z,33.57
2023-05-09T15:36:18.968Z,34.21
2023-05-09T15:38:49.378Z,34.39
2023-05-09T15:41:16.207Z,33.52
2023-05-09T15:43:42.878Z,33.52
2023-05-09T15:46:09.664Z,32.71
2023-05-09T15:48:36.285Z,33.18
2023-05-09T15:51:04.088Z,33.17
2023-05-09T15:53:30.773Z,33.27
2023-05-09T15:55:57.262Z,33.33
2023-05-09T15:58:23.785Z,33.52
2023-05-09T16:00:50.307Z,33.36
2023-05-09T16:03:16.994Z,33.01
2023-05-09T16:05:43.875Z,33.35
2023-05-09T16:08:10.679Z,33.19
2023-05-09T16:10:37.150Z,33.61
2023-05-09T16:13:03.674Z,32.20
2023-05-09T16:15:30.222Z,32.66
2023-05-09T16:17:56.958Z,32.73
2023-05-09T16:20:23.458Z,32.17
2023-05-09T16:22:49.957Z,31.71
2023-05-09T16:25:16.892Z,31.96
2023-05-09T16:27:43.377Z,32.53
2023-05-09T16:30:10.292Z,32.71
2023-05-09T16:32:37.006Z,32.65
2023-05-09T16:35:04.219Z,33.19
2023-05-09T16:37:31.084Z,32.80
2023-05-09T16:39:59.519Z,33.47
2023-05-09T16:42:26.067Z,33.42
2023-05-09T16:44:52.690Z,33.86
2023-05-09T16:47:19.174Z,33.24
2023-05-09T16:49:45.993Z,33.78
2023-05-09T16:52:12.490Z,33.73
2023-05-09T16:54:38.955Z,33.81
2023-05-09T16:57:05.922Z,33.64
2023-05-09T16:59:32.892Z,33.45
2023-05-09T17:02:00.029Z,33.86
2023-05-09T17:04:27.519Z,33.97
2023-05-09T17:06:54.192Z,34.03
2023-05-09T17:09:20.739Z,33.77
2023-05-09T17:11:48.268Z,33.05
2023-05-09T17:14:14.871Z,33.72
2023-05-09T17:16:41.413Z,34.05
2023-05-09T17:19:07.942Z,33.27
2023-05-09T17:21:34.948Z,34.09
2023-05-09T17:24:02.206Z,33.93
2023-05-09T17:26:29.607Z,34.51
2023-05-09T17:28:56.217Z,33.52
2023-05-09T17:31:22.834Z,33.90
2023-05-09T17:33:49.448Z,34.50
2023-05-09T17:36:15.972Z,33.56
2023-05-09T17:38:42.482Z,33.67
2023-05-09T17:41:09.049Z,33.90
2023-05-09T17:43:35.568Z,33.89
2023-05-09T17:46:02.289Z,34.53
2023-05-09T17:48:29.263Z,33.83
2023-05-09T17:50:56.255Z,34.10
2023-05-09T17:53:22.814Z,33.78
2023-05-09T17:55:49.269Z,34.32
2023-05-09T17:58:15.773Z,34.16
2023-05-09T18:00:42.313Z,34.08
2023-05-09T18:03:08.888Z,34.14
2023-05-09T18:05:35.475Z,33.61
2023-05-09T18:08:03.455Z,33.89
2023-05-09T18:10:30.001Z,34.17
2023-05-09T18:12:56.684Z,34.14
2023-05-09T18:15:24.423Z,34.82
2023-05-09T18:17:51.105Z,34.90
2023-05-09T18:20:18.162Z,35.06
2023-05-09T18:22:44.889Z,35.18
2023-05-09T18:25:11.580Z,34.92
2023-05-09T18:27:38.357Z,34.96
2023-05-09T18:30:05.416Z,34.88
2023-05-09T18:32:32.481Z,35.44
2023-05-09T18:34:59.037Z,35.18
2023-05-09T18:37:25.582Z,35.15
2023-05-09T18:39:52.108Z,35.43
2023-05-09T18:42:19.214Z,35.49
2023-05-09T18:44:45.996Z,35.25
2023-05-09T18:47:12.634Z,35.12
2023-05-09T18:49:39.283Z,35.21
2023-05-09T18:52:05.889Z,35.99
2023-05-09T18:54:32.523Z,35.25
2023-05-09T18:56:58.964Z,35.79
2023-05-09T18:59:25.495Z,36.29
2023-05-09T19:01:52.005Z,36.21
2023-05-09T19:04:19.518Z,36.37
2023-05-09T19:06:46.697Z,36.65
2023-05-09T19:09:13.289Z,36.15
2023-05-09T19:11:39.794Z,36.24
2023-05-09T19:14:06.593Z,36.31
2023-05-09T19:16:33.333Z,36.42
2023-05-09T19:19:01.028Z,36.63
2023-05-09T19:21:28.353Z,36.56
2023-05-09T19:23:54.991Z,35.99
2023-05-09T19:26:22.074Z,36.32
2023-05-09T19:28:48.745Z,35.86
2023-05-09T19:31:15.645Z,36.29
2023-05-09T19:33:45.336Z,36.70
2023-05-09T19:36:11.970Z,36.03
2023-05-09T19:38:39.904Z,36.27
2023-05-09T19:41:06.458Z,36.42
2023-05-09T19:43:32.940Z,36.40
2023-05-09T19:46:00.019Z,36.01
2023-05-09T19:48:26.631Z,36.68
2023-05-09T19:50:56.460Z,36.77
2023-05-09T19:53:22.922Z,36.48
2023-05-09T19:55:49.564Z,36.35
2023-05-09T19:58:17.754Z,37.02
2023-05-09T20:00:46.534Z,36.86
2023-05-09T20:03:13.330Z,37.00
2023-05-09T20:05:39.995Z,37.19
2023-05-09T20:08:09.408Z,37.26
2023-05-09T20:10:38.078Z,37.36
2023-05-09T20:13:05.425Z,37.69
2023-05-09T20:15:33.088Z,38.18
2023-05-09T20:18:03.659Z,37.84
2023-05-09T20:20:32.303Z,37.86
2023-05-09T20:23:00.476Z,38.60
2023-05-09T20:25:29.914Z,37.49
2023-05-09T20:27:56.452Z,38.69
2023-05-09T20:30:23.027Z,38.88
2023-05-09T20:32:49.528Z,39.35
2023-05-09T20:35:16.413Z,39.88
2023-05-09T20:37:42.954Z,39.76
2023-05-09T20:40:09.874Z,40.11
2023-05-09T20:42:36.478Z,40.55
2023-05-09T20:45:03.745Z,40.65
2023-05-09T20:47:30.250Z,40.95
2023-05-09T20:49:58.361Z,41.20
2023-05-09T20:52:25.158Z,40.96
2023-05-09T20:54:51.650Z,41.14
2023-05-09T20:57:19.017Z,40.97
2023-05-09T20:59:45.611Z,41.56
2023-05-09T21:02:12.147Z,41.67
2023-05-09T21:04:38.638Z,41.35
2023-05-09T21:07:05.255Z,41.69
2023-05-09T21:09:31.782Z,41.09
2023-05-09T21:11:58.726Z,41.99
2023-05-09T21:14:25.187Z,41.57
2023-05-09T21:16:51.983Z,42.04
2023-05-09T21:19:18.579Z,42.05
2023-05-09T21:21:45.430Z,42.80
2023-05-09T21:24:11.932Z,42.34
2023-05-09T21:26:38.796Z,42.08
2023-05-09T21:29:05.367Z,42.90
2023-05-09T21:31:31.855Z,42.94
2023-05-09T21:33:59.116Z,42.98
2023-05-09T21:36:28.145Z,42.49
2023-05-09T21:38:54.953Z,43.11
2023-05-09T21:41:22.509Z,43.14
2023-05-09T21:43:49.543Z,43.15
2023-05-09T21:46:16.578Z,43.31
2023-05-09T21:48:43.021Z,43.62
2023-05-09T21:51:10.272Z,43.43
2023-05-09T21:53:36.817Z,43.20
2023-05-09T21:56:03.472Z,42.78
2023-05-09T21:58:29.915Z,43.92
2023-05-09T22:00:56.386Z,43.72
2023-05-09T22:03:23.323Z,43.35
2023-05-09T22:05:50.148Z,43.97
2023-05-09T22:08:17.207Z,43.05
2023-05-09T22:10:43.684Z,43.60
2023-05-09T22:13:10.286Z,43.66
2023-05-09T22:15:36.842Z,44.13
2023-05-09T22:18:03.490Z,43.67
2023-05-09T22:20:29.985Z,44.40
2023-05-09T22:22:56.434Z,44.00
2023-05-09T22:25:23.136Z,44.38
2023-05-09T22:27:50.075Z,44.25
2023-05-09T22:30:17.522Z,44.02
2023-05-09T22:32:44.677Z,44.08
2023-05-09T22:35:11.888Z,44.78
2023-05-09T22:37:38.433Z,44.56
2023-05-09T22:40:05.935Z,44.97
2023-05-09T22:42:34.282Z,44.39
2023-05-09T22:45:01.109Z,44.77
2023-05-09T22:47:27.610Z,43.93
2023-05-09T22:49:54.198Z,44.26
2023-05-09T22:52:20.686Z,45.10
2023-05-09T22:54:47.716Z,45.47
2023-05-09T22:57:17.703Z,45.20
2023-05-09T22:59:44.401Z,45.09
2023-05-09T23:02:10.902Z,45.08
2023-05-09T23:04:37.401Z,44.56
2023-05-09T23:07:03.872Z,45.81
2023-05-09T23:09:31.484Z,46.63
2023-05-09T23:11:59.548Z,46.14
2023-05-09T23:14:26.017Z,46.19
2023-05-09T23:16:52.527Z,45.94
2023-05-09T23:19:19.768Z,45.60
2023-05-09T23:21:46.225Z,46.05
2023-05-09T23:24:12.726Z,46.58
2023-05-09T23:26:39.198Z,47.00
2023-05-09T23:29:05.752Z,46.68
2023-05-09T23:31:32.284Z,46.46
2023-05-09T23:33:58.805Z,46.59
2023-05-09T23:36:25.410Z,45.98
2023-05-09T23:38:51.905Z,46.90
2023-05-09T23:41:18.544Z,47.32
2023-05-09T23:43:45.077Z,46.77
2023-05-09T23:46:11.539Z,47.09
2023-05-09T23:48:38.052Z,47.54
2023-05-09T23:51:04.667Z,48.04
2023-05-09T23:53:34.939Z,47.82
2023-05-09T23:56:02.571Z,48.38
2023-05-09T23:58:29.087Z,48.54
